createdAt,value
2024-02-03T00:02:22.576Z,101268.84
2024-02-03T00:04:50.960Z,101271.53
2024-02-03T00:07:19.356Z,101259.28
2024-02-03T00:09:48.729Z,101263.69
2024-02-03T00:12:20.656Z,101260.19
2024-02-03T00:14:49.238Z,101265.41
2024-02-03T00:17:17.649Z,101256.69
2024-02-03T00:19:46.003Z,101254.06
2024-02-03T00:22:14.568Z,101262.72
2024-02-03T00:24:43.032Z,101259.28
2024-02-03T00:27:11.459Z,101254.97
2024-02-03T00:29:41.084Z,101255.03
2024-02-03T00:32:09.381Z,101246.38
2024-02-03T00:34:37.915Z,101246.38
2024-02-03T00:37:06.328Z,101255.84
2024-02-03T00:39:34.650Z,101262.00
2024-02-03T00:42:02.959Z,101258.53
2024-02-03T00:44:31.228Z,101266.38
2024-02-03T00:47:00.832Z,101257.72
2024-02-03T00:49:29.201Z,101259.44
2024-02-03T00:51:57.561Z,101257.81
2024-02-03T00:54:25.952Z,101252.56
2024-02-03T00:56:54.229Z,101249.13
2024-02-03T00:59:22.650Z,101251.75
2024-02-03T01:01:50.935Z,101252.72
2024-02-03T01:04:20.681Z,101251.75
2024-02-03T01:06:50.805Z,101249.13
2024-02-03T01:09:19.528Z,101253.47
2024-02-03T01:11:48.077Z,101254.34
2024-02-03T01:14:16.607Z,101247.44
2024-02-03T01:16:45.815Z,101264.00
2024-02-03T01:19:14.710Z,101253.56
2024-02-03T01:21:44.553Z,101258.78
2024-02-03T01:24:12.914Z,101253.56
2024-02-03T01:26:41.200Z,101251.84
2024-02-03T01:29:09.460Z,101246.69
2024-02-03T01:31:38.647Z,101241.38
2024-02-03T01:34:07.456Z,101242.34
2024-02-03T01:36:35.902Z,101252.91
2024-02-03T01:39:07.235Z,101260.75
2024-02-03T01:41:35.689Z,101256.31
2024-02-03T01:44:03.949Z,101254.59
2024-02-03T01:46:32.279Z,101243.34
2024-02-03T01:49:00.772Z,101241.53
2024-02-03T01:51:30.066Z,101240.63
2024-02-03T01:54:00.830Z,101245.84
2024-02-03T01:56:35.007Z,101233.63
2024-02-03T01:59:04.552Z,101233.63
2024-02-03T02:01:33.290Z,101240.63
2024-02-03T02:04:01.766Z,101240.63
2024-02-03T02:06:31.298Z,101238.13
2024-02-03T02:08:59.827Z,101242.50
2024-02-03T02:11:28.872Z,101233.78
2024-02-03T02:13:58.886Z,101233.78
2024-02-03T02:16:30.181Z,101238.16
2024-02-03T02:18:59.014Z,101240.78
2024-02-03T02:21:28.920Z,101235.56
2024-02-03T02:23:58.334Z,101226.91
2024-02-03T02:26:26.722Z,101224.34
2024-02-03T02:28:55.049Z,101228.78
2024-02-03T02:31:23.318Z,101226.16
2024-02-03T02:33:51.687Z,101226.22
2024-02-03T02:36:20.119Z,101226.16
2024-02-03T02:38:49.745Z,101221.81
2024-02-03T02:41:17.998Z,101204.38
2024-02-03T02:43:46.259Z,101212.22
2024-02-03T02:46:14.525Z,101209.59
2024-02-03T02:48:42.874Z,101222.72
2024-02-03T02:51:11.282Z,101213.16
2024-02-03T02:53:39.618Z,101207.91
2024-02-03T02:56:09.368Z,101199.28
2024-02-03T02:58:37.621Z,101191.34
2024-02-03T03:01:06.086Z,101197.47
2024-02-03T03:03:34.446Z,101200.16
2024-02-03T03:06:02.672Z,101195.84
2024-02-03T03:08:30.913Z,101191.50
2024-02-03T03:10:59.164Z,101192.41
2024-02-03T03:13:29.191Z,101198.53
2024-02-03T03:15:57.460Z,101199.41
2024-02-03T03:18:26.032Z,101195.09
2024-02-03T03:20:54.306Z,101195.97
2024-02-03T03:23:22.591Z,101192.56
2024-02-03T03:25:51.377Z,101198.66
2024-02-03T03:28:19.530Z,101192.56
2024-02-03T03:30:49.148Z,101197.78
2024-02-03T03:33:17.626Z,101186.44
2024-02-03T03:35:45.868Z,101187.31
2024-02-03T03:38:14.018Z,101196.16
2024-02-03T03:40:42.181Z,101190.91
2024-02-03T03:43:10.394Z,101189.09
2024-02-03T03:45:38.740Z,101190.81
2024-02-03T03:48:09.234Z,101179.53
2024-02-03T03:50:37.486Z,101191.81
2024-02-03T03:53:06.087Z,101191.06
2024-02-03T03:55:34.280Z,101182.31
2024-02-03T03:58:02.498Z,101198.06
2024-02-03T04:00:30.687Z,101188.53
2024-02-03T04:02:58.914Z,101182.38
2024-02-03T04:05:28.411Z,101195.44
2024-02-03T04:07:56.577Z,101181.50
2024-02-03T04:10:24.914Z,101178.06
2024-02-03T04:12:53.256Z,101187.59
2024-02-03T04:15:21.501Z,101187.78
2024-02-03T04:17:51.067Z,101195.63
2024-02-03T04:20:19.474Z,101185.97
2024-02-03T04:22:49.071Z,101184.31
2024-02-03T04:25:17.254Z,101184.31
2024-02-03T04:27:45.409Z,101176.47
2024-02-03T04:30:22.599Z,101191.34
2024-02-03T04:32:53.383Z,101193.94
2024-02-03T04:35:21.851Z,101186.09
2024-02-03T04:37:51.410Z,101175.66
2024-02-03T04:40:19.745Z,101175.66
2024-02-03T04:42:47.977Z,101171.25
2024-02-03T04:45:16.422Z,101170.41
2024-02-03T04:47:44.760Z,101170.41
2024-02-03T04:50:13.075Z,101179.25
2024-02-03T04:52:41.345Z,101161.78
2024-02-03T04:55:10.886Z,101164.44
2024-02-03T04:57:39.081Z,101165.38
2024-02-03T05:00:09.606Z,101164.44
2024-02-03T05:02:38.066Z,101157.53
2024-02-03T05:05:06.340Z,101158.31
2024-02-03T05:07:34.735Z,101154.81
2024-02-03T05:10:03.045Z,101151.38
2024-02-03T05:12:34.078Z,101147.88
2024-02-03T05:15:05.277Z,101157.56
2024-02-03T05:17:34.518Z,101154.06
2024-02-03T05:20:03.097Z,101161.91
2024-02-03T05:22:31.247Z,101154.06
2024-02-03T05:24:59.446Z,101159.28
2024-02-03T05:27:27.677Z,101152.28
2024-02-03T05:29:57.404Z,101155.78
2024-02-03T05:32:25.942Z,101148.00
2024-02-03T05:34:54.378Z,101148.00
2024-02-03T05:37:22.831Z,101144.59
2024-02-03T05:39:51.099Z,101144.59
2024-02-03T05:42:22.972Z,101148.97
2024-02-03T05:44:52.117Z,101156.81
2024-02-03T05:47:21.631Z,101154.19
2024-02-03T05:49:49.879Z,101167.38
2024-02-03T05:52:18.048Z,101161.28
2024-02-03T05:54:46.329Z,101161.28
2024-02-03T05:57:14.674Z,101177.88
2024-02-03T05:59:50.615Z,101170.88
2024-02-03T06:02:21.406Z,101175.22
2024-02-03T06:04:49.890Z,101160.41
2024-02-03T06:07:18.858Z,101156.94
2024-02-03T06:09:47.394Z,101153.53
2024-02-03T06:12:15.851Z,101162.19
2024-02-03T06:14:45.190Z,101153.53
2024-02-03T06:17:14.301Z,101149.19
2024-02-03T06:19:44.761Z,101147.41
2024-02-03T06:22:13.160Z,101134.25
2024-02-03T06:24:41.402Z,101146.50
2024-02-03T06:27:09.792Z,101139.50
2024-02-03T06:29:37.934Z,101136.03
2024-02-03T06:32:06.391Z,101141.25
2024-02-03T06:34:34.998Z,101131.72
2024-02-03T06:37:05.310Z,101140.47
2024-02-03T06:39:33.722Z,101135.22
2024-02-03T06:42:01.976Z,101130.81
2024-02-03T06:44:30.113Z,101130.81
2024-02-03T06:46:58.371Z,101134.25
2024-02-03T06:49:26.663Z,101134.25
2024-02-03T06:51:55.056Z,101132.47
2024-02-03T06:54:24.686Z,101145.59
2024-02-03T06:56:52.994Z,101142.19
2024-02-03T06:59:21.182Z,101143.06
2024-02-03T07:01:51.234Z,101150.09
2024-02-03T07:04:19.624Z,101148.31
2024-02-03T07:06:48.008Z,101145.78
2024-02-03T07:09:16.248Z,101157.13
2024-02-03T07:11:56.631Z,101143.97
2024-02-03T07:14:31.637Z,101130.97
2024-02-03T07:16:59.913Z,101137.94
2024-02-03T07:19:28.746Z,101128.34
2024-02-03T07:21:57.233Z,101120.50
2024-02-03T07:24:25.938Z,101137.09
2024-02-03T07:26:55.438Z,101140.59
2024-02-03T07:29:23.737Z,101135.44
2024-02-03T07:32:00.514Z,101141.47
2024-02-03T07:34:28.887Z,101134.56
2024-02-03T07:36:57.306Z,101139.78
2024-02-03T07:39:25.579Z,101135.38
2024-02-03T07:41:55.074Z,101143.22
2024-02-03T07:44:23.261Z,101140.59
2024-02-03T07:46:51.396Z,101139.78
2024-02-03T07:49:19.639Z,101141.56
2024-02-03T07:51:47.918Z,101142.47
2024-02-03T07:54:16.182Z,101136.34
2024-02-03T07:56:44.427Z,101150.38
2024-02-03T07:59:15.622Z,101146.94
2024-02-03T08:01:43.814Z,101158.22
2024-02-03T08:04:13.084Z,101147.69
2024-02-03T08:06:41.888Z,101152.03
2024-02-03T08:09:10.072Z,101143.34
2024-02-03T08:11:38.337Z,101153.81
2024-02-03T08:14:06.549Z,101155.63
2024-02-03T08:16:36.100Z,101152.16
2024-02-03T08:19:04.430Z,101148.75
2024-02-03T08:21:32.929Z,101146.13
2024-02-03T08:24:02.832Z,101150.66
2024-02-03T08:26:31.287Z,101139.31
2024-02-03T08:28:59.550Z,101153.28
2024-02-03T08:31:27.731Z,101142.81
2024-02-03T08:33:58.757Z,101137.56
2024-02-03T08:36:27.205Z,101149.00
2024-02-03T08:38:55.505Z,101151.63
2024-02-03T08:41:23.726Z,101170.91
2024-02-03T08:43:51.900Z,101148.34
2024-02-03T08:46:20.048Z,101158.81
2024-02-03T08:48:48.398Z,101148.34
2024-02-03T08:51:19.498Z,101152.72
2024-02-03T08:53:47.814Z,101151.94
2024-02-03T08:56:16.063Z,101154.53
2024-02-03T08:58:44.306Z,101165.00
2024-02-03T09:01:13.162Z,101163.19
2024-02-03T09:03:41.485Z,101165.81
2024-02-03T09:06:12.125Z,101165.00
2024-02-03T09:08:41.646Z,101177.25
2024-02-03T09:11:09.802Z,101184.25
2024-02-03T09:13:37.990Z,101180.75
2024-02-03T09:16:06.973Z,101174.63
2024-02-03T09:18:35.368Z,101183.44
2024-02-03T09:21:03.623Z,101190.47
2024-02-03T09:23:31.778Z,101180.84
2024-02-03T09:26:02.417Z,101180.00
2024-02-03T09:28:30.560Z,101183.50
2024-02-03T09:30:58.781Z,101181.81
2024-02-03T09:33:27.057Z,101193.22
2024-02-03T09:35:55.273Z,101184.56
2024-02-03T09:38:23.569Z,101181.09
2024-02-03T09:40:54.260Z,101182.06
2024-02-03T09:43:26.297Z,101193.38
2024-02-03T09:45:55.102Z,101184.69
2024-02-03T09:48:24.875Z,101176.91
2024-02-03T09:50:53.287Z,101181.22
2024-02-03T09:53:21.478Z,101186.47
2024-02-03T09:55:49.641Z,101185.66
2024-02-03T09:58:17.818Z,101190.81
2024-02-03T10:00:52.951Z,101182.97
2024-02-03T10:03:21.396Z,101186.53
2024-02-03T10:05:53.184Z,101178.69
2024-02-03T10:08:21.390Z,101177.94
2024-02-03T10:10:54.192Z,101187.56
2024-02-03T10:13:22.461Z,101186.75
2024-02-03T10:16:01.449Z,101201.75
2024-02-03T10:18:30.566Z,101185.16
2024-02-03T10:21:01.134Z,101176.47
2024-02-03T10:23:29.532Z,101192.16
2024-02-03T10:25:58.331Z,101189.63
2024-02-03T10:28:26.617Z,101187.91
2024-02-03T10:30:59.728Z,101181.81
2024-02-03T10:33:31.327Z,101185.41
2024-02-03T10:36:02.448Z,101180.25
2024-02-03T10:38:30.695Z,101187.34
2024-02-03T10:40:59.592Z,101189.13
2024-02-03T10:43:31.010Z,101176.06
2024-02-03T10:46:03.372Z,101178.66
2024-02-03T10:48:35.727Z,101187.50
2024-02-03T10:51:08.273Z,101194.50
2024-02-03T10:53:41.576Z,101190.19
2024-02-03T10:56:13.407Z,101191.06
2024-02-03T10:58:42.984Z,101187.63
2024-02-03T11:01:16.761Z,101178.97
2024-02-03T11:03:49.378Z,101183.44
2024-02-03T11:06:25.906Z,101179.97
2024-02-03T11:08:54.124Z,101172.22
2024-02-03T11:11:27.086Z,101167.84
2024-02-03T11:13:55.920Z,101174.88
2024-02-03T11:16:24.114Z,101162.72
2024-02-03T11:18:53.728Z,101164.41
2024-02-03T11:21:28.504Z,101166.25
2024-02-03T11:23:56.842Z,101161.94
2024-02-03T11:26:25.067Z,101165.44
2024-02-03T11:28:53.218Z,101166.41
2024-02-03T11:31:22.964Z,101165.56
2024-02-03T11:33:51.322Z,101165.56
2024-02-03T11:36:20.897Z,101162.13
2024-02-03T11:38:50.210Z,101155.19
2024-02-03T11:41:18.845Z,101153.47
2024-02-03T11:43:48.709Z,101168.28
2024-02-03T11:46:17.066Z,101155.22
2024-02-03T11:48:46.919Z,101156.19
2024-02-03T11:51:17.058Z,101155.31
2024-02-03T11:53:46.649Z,101160.47
2024-02-03T11:56:14.842Z,101164.81
2024-02-03T11:58:43.098Z,101156.06
2024-02-03T12:01:15.285Z,101160.47
2024-02-03T12:03:43.820Z,101153.47
2024-02-03T12:06:12.640Z,101143.03
2024-02-03T12:08:41.256Z,101143.09
2024-02-03T12:11:13.714Z,101141.38
2024-02-03T12:13:44.840Z,101130.16
2024-02-03T12:16:13.565Z,101131.03
2024-02-03T12:18:41.924Z,101124.09
2024-02-03T12:21:10.392Z,101136.34
2024-02-03T12:23:39.841Z,101131.19
2024-02-03T12:26:08.026Z,101126.00
2024-02-03T12:28:38.066Z,101126.00
2024-02-03T12:31:06.474Z,101121.59
2024-02-03T12:33:34.882Z,101117.34
2024-02-03T12:36:03.743Z,101115.53
2024-02-03T12:38:31.997Z,101111.22
2024-02-03T12:41:01.191Z,101117.34
2024-02-03T12:43:29.410Z,101123.47
2024-02-03T12:45:59.019Z,101125.22
2024-02-03T12:48:27.347Z,101109.53
2024-02-03T12:50:57.219Z,101109.59
2024-02-03T12:53:25.875Z,101114.91
2024-02-03T12:55:54.175Z,101109.59
2024-02-03T12:58:23.507Z,101104.38
2024-02-03T13:00:52.451Z,101110.56
2024-02-03T13:03:22.065Z,101107.09
2024-02-03T13:05:50.687Z,101105.38
2024-02-03T13:08:19.619Z,101106.34
2024-02-03T13:10:48.376Z,101108.16
2024-02-03T13:13:16.816Z,101093.31
2024-02-03T13:15:45.082Z,101096.81
2024-02-03T13:18:13.889Z,101089.84
2024-02-03T13:20:43.512Z,101090.75
2024-02-03T13:23:12.437Z,101095.09
2024-02-03T13:25:40.591Z,101096.91
2024-02-03T13:28:08.992Z,101095.09
2024-02-03T13:30:37.206Z,101088.06
2024-02-03T13:33:06.178Z,101100.34
2024-02-03T13:35:34.449Z,101096.75
2024-02-03T13:38:05.542Z,101093.31
2024-02-03T13:40:34.908Z,101097.66
2024-02-03T13:43:03.243Z,101099.44
2024-02-03T13:45:32.588Z,101085.50
2024-02-03T13:48:01.076Z,101093.31
2024-02-03T13:50:29.461Z,101088.88
2024-02-03T13:52:57.696Z,101085.38
2024-02-03T13:55:27.234Z,101080.09
2024-02-03T13:57:55.471Z,101078.38
2024-02-03T14:00:23.978Z,101075.78
2024-02-03T14:02:52.312Z,101073.19
2024-02-03T14:05:20.551Z,101070.63
2024-02-03T14:07:48.910Z,101068.91
2024-02-03T14:10:17.571Z,101063.66
2024-02-03T14:12:47.318Z,101079.38
2024-02-03T14:15:15.889Z,101075.75
2024-02-03T14:17:44.208Z,101073.13
2024-02-03T14:20:13.625Z,101071.41
2024-02-03T14:22:41.970Z,101075.78
2024-02-03T14:25:11.212Z,101069.66
2024-02-03T14:27:39.592Z,101077.47
2024-02-03T14:30:10.487Z,101074.88
2024-02-03T14:32:38.721Z,101068.66
2024-02-03T14:35:08.088Z,101077.34
2024-02-03T14:37:36.354Z,101069.47
2024-02-03T14:40:06.083Z,101072.94
2024-02-03T14:42:34.405Z,101084.25
2024-02-03T14:45:02.571Z,101084.25
2024-02-03T14:47:32.390Z,101079.03
2024-02-03T14:50:00.688Z,101073.78
2024-02-03T14:52:29.013Z,101077.28
2024-02-03T14:54:58.786Z,101085.16
2024-02-03T14:57:27.027Z,101079.91
2024-02-03T14:59:55.224Z,101085.94
2024-02-03T15:02:24.613Z,101088.56
2024-02-03T15:04:54.110Z,101089.50
2024-02-03T15:07:22.295Z,101087.69
2024-02-03T15:09:50.630Z,101082.44
2024-02-03T15:12:25.804Z,101081.47
2024-02-03T15:14:54.221Z,101084.94
2024-02-03T15:17:22.416Z,101090.19
2024-02-03T15:19:51.271Z,101089.22
2024-02-03T15:22:20.970Z,101084.88
2024-02-03T15:24:50.083Z,101080.56
2024-02-03T15:27:18.960Z,101082.31
2024-02-03T15:29:47.204Z,101072.75
2024-02-03T15:32:15.616Z,101079.78
2024-02-03T15:34:43.899Z,101079.78
2024-02-03T15:37:12.150Z,101080.66
2024-02-03T15:39:41.900Z,101070.19
2024-02-03T15:42:10.181Z,101064.97
2024-02-03T15:44:45.396Z,101068.38
2024-02-03T15:47:14.641Z,101074.56
2024-02-03T15:49:43.104Z,101082.44
2024-02-03T15:52:11.634Z,101086.78
2024-02-03T15:54:41.379Z,101081.56
2024-02-03T15:57:11.851Z,101085.06
2024-02-03T15:59:41.102Z,101087.69
2024-02-03T16:02:09.877Z,101084.09
2024-02-03T16:04:38.603Z,101092.81
2024-02-03T16:07:07.109Z,101082.41
2024-02-03T16:09:35.405Z,101086.72
2024-02-03T16:12:05.834Z,101078.88
2024-02-03T16:14:34.139Z,101082.31
2024-02-03T16:17:02.451Z,101081.44
2024-02-03T16:19:30.741Z,101080.56
2024-02-03T16:22:00.000Z,101080.56
2024-02-03T16:24:29.746Z,101086.59
2024-02-03T16:27:00.326Z,101085.78
2024-02-03T16:29:29.847Z,101081.44
2024-02-03T16:31:58.011Z,101079.72
2024-02-03T16:34:26.443Z,101072.75
2024-02-03T16:36:54.713Z,101077.09
2024-02-03T16:39:22.901Z,101086.69
2024-02-03T16:41:51.142Z,101083.97
2024-02-03T16:44:19.446Z,101083.97
2024-02-03T16:46:49.024Z,101087.44
2024-02-03T16:49:17.241Z,101087.34
2024-02-03T16:51:45.887Z,101092.53
2024-02-03T16:54:15.335Z,101092.59
2024-02-03T16:56:43.566Z,101095.22
2024-02-03T16:59:11.770Z,101093.44
2024-02-03T17:01:44.852Z,101088.13
2024-02-03T17:04:17.345Z,101085.50
2024-02-03T17:06:49.037Z,101097.75
2024-02-03T17:09:18.602Z,101090.88
2024-02-03T17:11:46.964Z,101103.16
2024-02-03T17:14:16.059Z,101104.03
2024-02-03T17:16:44.474Z,101107.47
2024-02-03T17:19:14.232Z,101089.13
2024-02-03T17:21:43.576Z,101097.91
2024-02-03T17:24:11.976Z,101094.44
2024-02-03T17:26:40.142Z,101103.28
2024-02-03T17:29:08.288Z,101094.56
2024-02-03T17:31:36.432Z,101096.38
2024-02-03T17:34:04.739Z,101092.88
2024-02-03T17:36:34.451Z,101106.91
2024-02-03T17:39:02.636Z,101093.75
2024-02-03T17:41:30.847Z,101093.81
2024-02-03T17:43:59.095Z,101108.72
2024-02-03T17:46:27.613Z,101089.50
2024-02-03T17:48:56.650Z,101093.88
2024-02-03T17:51:25.485Z,101103.47
2024-02-03T17:53:55.026Z,101100.91
2024-02-03T17:56:23.179Z,101096.50
2024-02-03T17:58:51.321Z,101098.28
2024-02-03T18:01:20.448Z,101117.44
2024-02-03T18:03:48.799Z,101108.75
2024-02-03T18:06:17.218Z,101121.84
2024-02-03T18:08:45.494Z,101114.00
2024-02-03T18:11:15.059Z,101109.59
2024-02-03T18:13:43.226Z,101112.22
2024-02-03T18:16:18.377Z,101104.38
2024-02-03T18:18:46.949Z,101114.84
2024-02-03T18:21:16.136Z,101106.97
2024-02-03T18:23:44.614Z,101106.13
2024-02-03T18:26:12.741Z,101109.69
2024-02-03T18:28:42.233Z,101110.59
2024-02-03T18:31:10.480Z,101115.03
2024-02-03T18:33:39.404Z,101104.56
2024-02-03T18:36:08.000Z,101108.16
2024-02-03T18:38:36.290Z,101106.34
2024-02-03T18:41:04.591Z,101106.34
2024-02-03T18:43:33.640Z,101103.72
2024-02-03T18:46:03.221Z,101100.22
2024-02-03T18:48:32.840Z,101094.97
2024-02-03T18:51:01.212Z,101089.72
2024-02-03T18:53:31.841Z,101096.75
2024-02-03T18:56:00.015Z,101096.75
2024-02-03T18:58:28.647Z,101098.56
2024-02-03T19:00:57.772Z,101102.06
2024-02-03T19:03:27.384Z,101096.91
2024-02-03T19:05:55.755Z,101097.78
2024-02-03T19:08:24.347Z,101102.13
2024-02-03T19:10:52.921Z,101092.47
2024-02-03T19:13:21.079Z,101090.75
2024-02-03T19:15:49.314Z,101086.44
2024-02-03T19:18:18.182Z,101097.84
2024-02-03T19:20:49.729Z,101104.81
2024-02-03T19:23:20.271Z,101087.31
2024-02-03T19:25:52.048Z,101093.44
2024-02-03T19:28:21.375Z,101092.56
2024-02-03T19:30:49.562Z,101095.16
2024-02-03T19:33:18.143Z,101096.91
2024-02-03T19:35:48.960Z,101090.75
2024-02-03T19:38:18.338Z,101093.34
2024-02-03T19:40:50.252Z,101096.94
2024-02-03T19:43:19.197Z,101102.19
2024-02-03T19:45:47.422Z,101093.44
2024-02-03T19:48:15.808Z,101098.69
2024-02-03T19:50:44.603Z,101097.84
2024-02-03T19:53:14.230Z,101106.66
2024-02-03T19:55:42.475Z,101092.75
2024-02-03T19:58:10.778Z,101094.53
2024-02-03T20:00:39.250Z,101090.13
2024-02-03T20:03:08.189Z,101094.53
2024-02-03T20:05:36.375Z,101091.00
2024-02-03T20:08:05.298Z,101093.72
2024-02-03T20:10:35.091Z,101094.53
2024-02-03T20:13:04.337Z,101094.53
2024-02-03T20:15:32.653Z,101105.00
2024-02-03T20:18:01.040Z,101122.44
2024-02-03T20:20:30.492Z,101118.94
2024-02-03T20:22:58.789Z,101105.84
2024-02-03T20:25:27.040Z,101118.09
2024-02-03T20:27:56.667Z,101118.09
2024-02-03T20:30:25.075Z,101112.84
2024-02-03T20:32:53.334Z,101114.66
2024-02-03T20:35:21.696Z,101114.66
2024-02-03T20:37:50.637Z,101105.97
2024-02-03T20:40:19.157Z,101110.34
2024-02-03T20:42:47.379Z,101106.84
2024-02-03T20:45:17.172Z,101098.09
2024-02-03T20:47:45.390Z,101114.72
2024-02-03T20:50:13.700Z,101109.53
2024-02-03T20:52:42.032Z,101099.00
2024-02-03T20:55:10.435Z,101109.53
2024-02-03T20:57:38.884Z,101102.50
2024-02-03T21:00:09.518Z,101104.34
2024-02-03T21:02:39.243Z,101097.41
2024-02-03T21:05:07.770Z,101106.16
2024-02-03T21:07:36.131Z,101093.06
2024-02-03T21:10:05.396Z,101097.41
2024-02-03T21:12:33.796Z,101103.59
2024-02-03T21:15:02.133Z,101093.06
2024-02-03T21:17:31.545Z,101104.44
2024-02-03T21:20:02.506Z,101099.19
2024-02-03T21:22:30.944Z,101103.59
2024-02-03T21:24:59.205Z,101092.22
2024-02-03T21:27:27.465Z,101083.47
2024-02-03T21:29:55.634Z,101080.84
2024-02-03T21:32:23.794Z,101076.38
2024-02-03T21:34:52.092Z,101068.53
2024-02-03T21:37:22.780Z,101068.53
2024-02-03T21:39:51.060Z,101070.28
2024-02-03T21:42:20.086Z,101063.34
2024-02-03T21:44:48.444Z,101066.78
2024-02-03T21:47:16.623Z,101066.78
2024-02-03T21:49:44.851Z,101065.97
2024-02-03T21:52:13.032Z,101056.31
2024-02-03T21:54:43.719Z,101051.06
2024-02-03T21:57:11.864Z,101043.22
2024-02-03T21:59:40.010Z,101037.00
2024-02-03T22:02:08.169Z,101027.38
2024-02-03T22:04:36.506Z,101030.84
2024-02-03T22:07:05.187Z,101026.41
2024-02-03T22:09:33.347Z,101027.25
2024-02-03T22:12:02.925Z,101020.22
2024-02-03T22:14:31.339Z,101020.22
2024-02-03T22:16:59.500Z,101019.41
2024-02-03T22:19:30.146Z,101032.50
2024-02-03T22:21:58.433Z,101020.22
2024-02-03T22:24:26.790Z,101033.31
2024-02-03T22:26:55.526Z,101034.16
2024-02-03T22:29:29.568Z,101031.47
2024-02-03T22:31:58.805Z,101024.44
2024-02-03T22:34:27.326Z,101027.00
2024-02-03T22:36:55.636Z,101029.63
2024-02-03T22:39:24.020Z,101020.88
2024-02-03T22:41:56.931Z,101006.03
2024-02-03T22:44:26.461Z,101018.31
2024-02-03T22:46:54.608Z,101024.44
2024-02-03T22:49:24.841Z,101013.09
2024-02-03T22:51:53.150Z,101012.16
2024-02-03T22:54:21.441Z,101020.09
2024-02-03T22:56:51.372Z,101017.47
2024-02-03T22:59:19.617Z,101024.50
2024-02-03T23:01:49.296Z,101028.81
2024-02-03T23:04:17.770Z,101027.97
2024-02-03T23:06:46.368Z,101017.41
2024-02-03T23:09:16.551Z,101014.78
2024-02-03T23:11:44.751Z,101027.00
2024-02-03T23:14:13.191Z,101009.50
2024-02-03T23:16:41.414Z,101013.88
2024-02-03T23:19:11.118Z,101000.78
2024-02-03T23:21:40.437Z,101007.69
2024-02-03T23:24:09.091Z,101002.44
2024-02-03T23:26:37.671Z,101005.94
2024-02-03T23:29:05.842Z,100990.22
2024-02-03T23:31:34.067Z,100984.97
2024-02-03T23:34:02.491Z,100979.75
2024-02-03T23:36:32.344Z,100973.66
2024-02-03T23:39:00.568Z,100969.25
2024-02-03T23:41:28.745Z,100969.25
2024-02-03T23:43:57.190Z,100968.38
2024-02-03T23:46:25.425Z,100968.38
2024-02-03T23:48:53.655Z,100962.25
2024-02-03T23:51:21.911Z,100957.03
2024-02-03T23:53:52.370Z,100947.44
2024-02-03T23:56:20.618Z,100950.09
2024-02-03T23:58:48.773Z,100964.03
